sensor_id;sensor_type;location;lat;lon;timestamp;P1;durP1;ratioP1;P2;durP2;ratioP2
74632;SDS011;63139;52.018;8.552;2023-04-06T00:01:56;17.40;;;9.82;;
74632;SDS011;63139;52.018;8.552;2023-04-06T00:04:24;14.57;;;7.75;;
74632;SDS011;63139;52.018;8.552;2023-04-06T00:06:52;14.43;;;7.88;;
74632;SDS011;63139;52.018;8.552;2023-04-06T00:09:22;13.65;;;7.63;;
74632;SDS011;63139;52.018;8.552;2023-04-06T00:11:49;15.98;;;8.07;;
74632;SDS011;63139;52.018;8.552;2023-04-06T00:14:17;10.65;;;6.68;;
74632;SDS011;63139;52.018;8.552;2023-04-06T00:16:45;15.70;;;9.43;;
74632;SDS011;63139;52.018;8.552;2023-04-06T00:19:13;15.75;;;8.70;;
74632;SDS011;63139;52.018;8.552;2023-04-06T00:21:41;15.27;;;8.25;;
74632;SDS011;63139;52.018;8.552;2023-04-06T00:24:09;13.48;;;7.00;;
74632;SDS011;63139;52.018;8.552;2023-04-06T00:26:38;18.20;;;9.80;;
74632;SDS011;63139;52.018;8.552;2023-04-06T00:29:06;16.77;;;9.65;;
74632;SDS011;63139;52.018;8.552;2023-04-06T00:31:35;15.10;;;8.93;;
74632;SDS011;63139;52.018;8.552;2023-04-06T00:34:02;12.50;;;7.43;;
74632;SDS011;63139;52.018;8.552;2023-04-06T00:36:30;14.20;;;9.07;;
74632;SDS011;63139;52.018;8.552;2023-04-06T00:38:58;17.42;;;9.77;;
74632;SDS011;63139;52.018;8.552;2023-04-06T00:41:26;14.27;;;8.43;;
74632;SDS011;63139;52.018;8.552;2023-04-06T00:43:56;14.38;;;8.23;;
74632;SDS011;63139;52.018;8.552;2023-04-06T00:46:24;11.50;;;7.65;;
74632;SDS011;63139;52.018;8.552;2023-04-06T00:48:52;14.38;;;8.82;;
74632;SDS011;63139;52.018;8.552;2023-04-06T00:51:19;14.77;;;8.15;;
74632;SDS011;63139;52.018;8.552;2023-04-06T00:53:48;15.20;;;9.40;;
74632;SDS011;63139;52.018;8.552;2023-04-06T00:56:16;11.32;;;7.35;;
74632;SDS011;63139;52.018;8.552;2023-04-06T00:58:50;12.18;;;7.32;;
74632;SDS011;63139;52.018;8.552;2023-04-06T01:01:19;12.05;;;6.97;;
74632;SDS011;63139;52.018;8.552;2023-04-06T01:03:50;17.00;;;9.38;;
74632;SDS011;63139;52.018;8.552;2023-04-06T01:06:19;10.60;;;6.68;;
74632;SDS011;63139;52.018;8.552;2023-04-06T01:08:56;9.32;;;6.20;;
74632;SDS011;63139;52.018;8.552;2023-04-06T01:11:26;10.10;;;6.93;;
74632;SDS011;63139;52.018;8.552;2023-04-06T01:13:55;15.60;;;8.63;;
74632;SDS011;63139;52.018;8.552;2023-04-06T01:16:45;10.90;;;6.55;;
74632;SDS011;63139;52.018;8.552;2023-04-06T01:19:16;12.45;;;7.82;;
74632;SDS011;63139;52.018;8.552;2023-04-06T01:21:49;16.25;;;9.38;;
74632;SDS011;63139;52.018;8.552;2023-04-06T01:24:41;14.15;;;8.65;;
74632;SDS011;63139;52.018;8.552;2023-04-06T01:27:20;11.20;;;7.07;;
74632;SDS011;63139;52.018;8.552;2023-04-06T01:30:03;13.73;;;8.10;;
74632;SDS011;63139;52.018;8.552;2023-04-06T01:32:55;16.30;;;8.90;;
74632;SDS011;63139;52.018;8.552;2023-04-06T01:35:47;11.43;;;6.90;;
74632;SDS011;63139;52.018;8.552;2023-04-06T01:38:18;13.98;;;7.88;;
74632;SDS011;63139;52.018;8.552;2023-04-06T01:40:48;16.27;;;8.70;;
74632;SDS011;63139;52.018;8.552;2023-04-06T01:43:19;13.25;;;7.78;;
74632;SDS011;63139;52.018;8.552;2023-04-06T01:46:08;17.35;;;10.10;;
74632;SDS011;63139;52.018;8.552;2023-04-06T01:48:39;14.07;;;8.32;;
74632;SDS011;63139;52.018;8.552;2023-04-06T01:51:30;13.38;;;7.20;;
74632;SDS011;63139;52.018;8.552;2023-04-06T01:54:00;13.00;;;8.05;;
74632;SDS011;63139;52.018;8.552;2023-04-06T01:56:41;14.23;;;8.07;;
74632;SDS011;63139;52.018;8.552;2023-04-06T01:59:27;11.13;;;6.50;;
74632;SDS011;63139;52.018;8.552;2023-04-06T02:01:57;13.05;;;7.85;;
74632;SDS011;63139;52.018;8.552;2023-04-06T02:04:26;12.27;;;6.78;;
74632;SDS011;63139;52.018;8.552;2023-04-06T02:07:04;11.20;;;6.97;;
74632;SDS011;63139;52.018;8.552;2023-04-06T02:09:32;12.07;;;6.97;;
74632;SDS011;63139;52.018;8.552;2023-04-06T02:12:02;13.48;;;8.00;;
74632;SDS011;63139;52.018;8.552;2023-04-06T02:14:32;13.85;;;8.05;;
74632;SDS011;63139;52.018;8.552;2023-04-06T02:17:00;17.17;;;9.77;;
74632;SDS011;63139;52.018;8.552;2023-04-06T02:19:28;13.55;;;7.72;;
74632;SDS011;63139;52.018;8.552;2023-04-06T02:21:56;16.40;;;8.85;;
74632;SDS011;63139;52.018;8.552;2023-04-06T02:24:23;13.75;;;8.23;;
74632;SDS011;63139;52.018;8.552;2023-04-06T02:26:51;14.27;;;8.45;;
74632;SDS011;63139;52.018;8.552;2023-04-06T02:29:21;14.98;;;9.07;;
74632;SDS011;63139;52.018;8.552;2023-04-06T02:31:49;16.67;;;9.07;;
74632;SDS011;63139;52.018;8.552;2023-04-06T02:34:18;12.40;;;7.57;;
74632;SDS011;63139;52.018;8.552;2023-04-06T02:36:49;13.20;;;8.02;;
74632;SDS011;63139;52.018;8.552;2023-04-06T02:39:17;11.95;;;6.88;;
74632;SDS011;63139;52.018;8.552;2023-04-06T02:41:45;11.50;;;7.13;;
74632;SDS011;63139;52.018;8.552;2023-04-06T02:44:18;15.75;;;8.93;;
74632;SDS011;63139;52.018;8.552;2023-04-06T02:46:47;12.95;;;7.47;;
74632;SDS011;63139;52.018;8.552;2023-04-06T02:49:16;13.60;;;7.90;;
74632;SDS011;63139;52.018;8.552;2023-04-06T02:51:44;14.95;;;9.07;;
74632;SDS011;63139;52.018;8.552;2023-04-06T02:54:20;10.68;;;6.68;;
74632;SDS011;63139;52.018;8.552;2023-04-06T02:56:48;12.75;;;7.13;;
74632;SDS011;63139;52.018;8.552;2023-04-06T02:59:16;16.52;;;9.60;;
74632;SDS011;63139;52.018;8.552;2023-04-06T03:01:56;14.40;;;8.88;;
74632;SDS011;63139;52.018;8.552;2023-04-06T03:04:25;15.70;;;9.02;;
74632;SDS011;63139;52.018;8.552;2023-04-06T03:06:56;14.00;;;8.27;;
74632;SDS011;63139;52.018;8.552;2023-04-06T03:09:36;15.82;;;9.88;;
74632;SDS011;63139;52.018;8.552;2023-04-06T03:12:05;15.77;;;8.57;;
74632;SDS011;63139;52.018;8.552;2023-04-06T03:14:52;15.20;;;8.45;;
74632;SDS011;63139;52.018;8.552;2023-04-06T03:17:21;17.05;;;8.40;;
74632;SDS011;63139;52.018;8.552;2023-04-06T03:19:49;14.10;;;8.55;;
74632;SDS011;63139;52.018;8.552;2023-04-06T03:22:18;14.70;;;9.32;;
74632;SDS011;63139;52.018;8.552;2023-04-06T03:24:47;14.98;;;9.38;;
74632;SDS011;63139;52.018;8.552;2023-04-06T03:27:15;15.20;;;9.00;;
74632;SDS011;63139;52.018;8.552;2023-04-06T03:29:44;14.52;;;9.80;;
74632;SDS011;63139;52.018;8.552;2023-04-06T03:32:17;16.75;;;9.88;;
74632;SDS011;63139;52.018;8.552;2023-04-06T03:34:46;18.73;;;11.60;;
74632;SDS011;63139;52.018;8.552;2023-04-06T03:37:14;20.25;;;10.75;;
74632;SDS011;63139;52.018;8.552;2023-04-06T03:39:47;17.17;;;10.50;;
74632;SDS011;63139;52.018;8.552;2023-04-06T03:42:20;17.63;;;11.45;;
74632;SDS011;63139;52.018;8.552;2023-04-06T03:44:51;18.50;;;10.85;;
74632;SDS011;63139;52.018;8.552;2023-04-06T03:47:20;17.10;;;10.23;;
74632;SDS011;63139;52.018;8.552;2023-04-06T03:49:49;14.10;;;8.82;;
74632;SDS011;63139;52.018;8.552;2023-04-06T03:52:18;14.95;;;8.90;;
74632;SDS011;63139;52.018;8.552;2023-04-06T03:54:45;15.13;;;9.63;;
74632;SDS011;63139;52.018;8.552;2023-04-06T03:57:13;18.88;;;10.95;;
74632;SDS011;63139;52.018;8.552;2023-04-06T03:59:41;17.00;;;10.20;;
74632;SDS011;63139;52.018;8.552;2023-04-06T04:02:09;15.73;;;8.95;;
74632;SDS011;63139;52.018;8.552;2023-04-06T04:04:37;14.75;;;8.60;;
74632;SDS011;63139;52.018;8.552;2023-04-06T04:07:06;13.27;;;7.60;;
74632;SDS011;63139;52.018;8.552;2023-04-06T04:09:34;15.55;;;9.55;;
74632;SDS011;63139;52.018;8.552;2023-04-06T04:12:04;19.13;;;10.93;;
74632;SDS011;63139;52.018;8.552;2023-04-06T04:14:32;15.27;;;9.23;;
74632;SDS011;63139;52.018;8.552;2023-04-06T04:17:00;14.75;;;9.27;;
74632;SDS011;63139;52.018;8.552;2023-04-06T04:19:28;18.17;;;9.45;;
74632;SDS011;63139;52.018;8.552;2023-04-06T04:21:56;19.92;;;10.13;;
74632;SDS011;63139;52.018;8.552;2023-04-06T04:24:32;15.43;;;9.43;;
74632;SDS011;63139;52.018;8.552;2023-04-06T04:27:01;21.77;;;11.23;;
74632;SDS011;63139;52.018;8.552;2023-04-06T04:29:30;19.00;;;10.40;;
74632;SDS011;63139;52.018;8.552;2023-04-06T04:32:03;20.23;;;11.82;;
74632;SDS011;63139;52.018;8.552;2023-04-06T04:34:32;17.67;;;11.10;;
74632;SDS011;63139;52.018;8.552;2023-04-06T04:37:01;21.20;;;12.20;;
74632;SDS011;63139;52.018;8.552;2023-04-06T04:39:44;18.17;;;11.25;;
74632;SDS011;63139;52.018;8.552;2023-04-06T04:42:13;18.15;;;10.30;;
74632;SDS011;63139;52.018;8.552;2023-04-06T04:44:47;16.58;;;9.05;;
74632;SDS011;63139;52.018;8.552;2023-04-06T04:47:21;17.73;;;10.20;;
74632;SDS011;63139;52.018;8.552;2023-04-06T04:49:49;19.63;;;10.65;;
74632;SDS011;63139;52.018;8.552;2023-04-06T04:52:21;16.17;;;10.25;;
74632;SDS011;63139;52.018;8.552;2023-04-06T04:55:00;16.35;;;9.77;;
74632;SDS011;63139;52.018;8.552;2023-04-06T04:57:28;16.58;;;9.50;;
74632;SDS011;63139;52.018;8.552;2023-04-06T04:59:56;16.05;;;9.70;;
74632;SDS011;63139;52.018;8.552;2023-04-06T05:02:24;16.15;;;10.18;;
74632;SDS011;63139;52.018;8.552;2023-04-06T05:05:11;18.92;;;11.40;;
74632;SDS011;63139;52.018;8.552;2023-04-06T05:07:40;22.63;;;12.35;;
74632;SDS011;63139;52.018;8.552;2023-04-06T05:10:15;22.13;;;11.57;;
74632;SDS011;63139;52.018;8.552;2023-04-06T05:12:51;20.95;;;11.90;;
74632;SDS011;63139;52.018;8.552;2023-04-06T05:15:19;18.60;;;10.65;;
74632;SDS011;63139;52.018;8.552;2023-04-06T05:17:51;20.15;;;11.50;;
74632;SDS011;63139;52.018;8.552;2023-04-06T05:20:24;19.08;;;11.95;;
74632;SDS011;63139;52.018;8.552;2023-04-06T05:22:53;18.95;;;11.45;;
74632;SDS011;63139;52.018;8.552;2023-04-06T05:25:22;21.30;;;12.98;;
74632;SDS011;63139;52.018;8.552;2023-04-06T05:27:53;19.67;;;11.77;;
74632;SDS011;63139;52.018;8.552;2023-04-06T05:30:34;19.45;;;11.88;;
74632;SDS011;63139;52.018;8.552;2023-04-06T05:33:03;17.55;;;9.73;;
74632;SDS011;63139;52.018;8.552;2023-04-06T05:35:44;13.10;;;8.40;;
74632;SDS011;63139;52.018;8.552;2023-04-06T05:38:12;21.45;;;12.27;;
74632;SDS011;63139;52.018;8.552;2023-04-06T05:40:42;18.95;;;10.25;;
74632;SDS011;63139;52.018;8.552;2023-04-06T05:43:13;20.77;;;11.45;;
74632;SDS011;63139;52.018;8.552;2023-04-06T05:45:45;21.75;;;12.77;;
74632;SDS011;63139;52.018;8.552;2023-04-06T05:48:12;20.17;;;12.60;;
74632;SDS011;63139;52.018;8.552;2023-04-06T05:50:40;20.25;;;12.00;;
74632;SDS011;63139;52.018;8.552;2023-04-06T05:53:11;19.92;;;12.15;;
74632;SDS011;63139;52.018;8.552;2023-04-06T05:55:45;22.27;;;12.98;;
74632;SDS011;63139;52.018;8.552;2023-04-06T05:58:17;23.55;;;13.40;;
74632;SDS011;63139;52.018;8.552;2023-04-06T06:00:46;18.02;;;10.13;;
74632;SDS011;63139;52.018;8.552;2023-04-06T06:03:16;20.27;;;12.20;;
74632;SDS011;63139;52.018;8.552;2023-04-06T06:05:49;19.75;;;12.00;;
74632;SDS011;63139;52.018;8.552;2023-04-06T06:08:25;21.00;;;12.25;;
74632;SDS011;63139;52.018;8.552;2023-04-06T06:10:54;20.88;;;12.60;;
74632;SDS011;63139;52.018;8.552;2023-04-06T06:13:23;19.35;;;12.10;;
74632;SDS011;63139;52.018;8.552;2023-04-06T06:15:51;19.90;;;12.15;;
74632;SDS011;63139;52.018;8.552;2023-04-06T06:18:21;19.02;;;12.73;;
74632;SDS011;63139;52.018;8.552;2023-04-06T06:20:51;19.02;;;11.05;;
74632;SDS011;63139;52.018;8.552;2023-04-06T06:23:20;21.52;;;13.48;;
74632;SDS011;63139;52.018;8.552;2023-04-06T06:25:48;17.27;;;10.82;;
74632;SDS011;63139;52.018;8.552;2023-04-06T06:28:19;17.40;;;11.48;;
74632;SDS011;63139;52.018;8.552;2023-04-06T06:30:47;17.65;;;10.05;;
74632;SDS011;63139;52.018;8.552;2023-04-06T06:33:19;21.02;;;13.88;;
74632;SDS011;63139;52.018;8.552;2023-04-06T06:35:50;21.42;;;13.13;;
74632;SDS011;63139;52.018;8.552;2023-04-06T06:38:18;24.52;;;13.18;;
74632;SDS011;63139;52.018;8.552;2023-04-06T06:40:49;23.88;;;12.35;;
74632;SDS011;63139;52.018;8.552;2023-04-06T06:43:18;22.08;;;13.10;;
74632;SDS011;63139;52.018;8.552;2023-04-06T06:46:07;21.98;;;11.35;;
74632;SDS011;63139;52.018;8.552;2023-04-06T06:48:35;22.40;;;11.75;;
74632;SDS011;63139;52.018;8.552;2023-04-06T06:51:03;17.40;;;11.77;;
74632;SDS011;63139;52.018;8.552;2023-04-06T06:53:31;15.55;;;9.98;;
74632;SDS011;63139;52.018;8.552;2023-04-06T06:55:59;15.27;;;10.43;;
74632;SDS011;63139;52.018;8.552;2023-04-06T06:58:29;16.02;;;10.35;;
74632;SDS011;63139;52.018;8.552;2023-04-06T07:00:58;15.40;;;9.82;;
74632;SDS011;63139;52.018;8.552;2023-04-06T07:03:29;16.20;;;10.48;;
74632;SDS011;63139;52.018;8.552;2023-04-06T07:05:57;19.65;;;11.40;;
74632;SDS011;63139;52.018;8.552;2023-04-06T07:08:25;21.05;;;11.77;;
74632;SDS011;63139;52.018;8.552;2023-04-06T07:10:53;17.38;;;10.43;;
74632;SDS011;63139;52.018;8.552;2023-04-06T07:13:22;15.50;;;9.90;;
74632;SDS011;63139;52.018;8.552;2023-04-06T07:15:55;19.80;;;10.85;;
74632;SDS011;63139;52.018;8.552;2023-04-06T07:18:23;15.52;;;9.32;;
74632;SDS011;63139;52.018;8.552;2023-04-06T07:20:51;18.70;;;9.63;;
74632;SDS011;63139;52.018;8.552;2023-04-06T07:23:19;11.77;;;7.97;;
74632;SDS011;63139;52.018;8.552;2023-04-06T07:25:47;13.75;;;8.77;;
74632;SDS011;63139;52.018;8.552;2023-04-06T07:28:17;16.38;;;9.18;;
74632;SDS011;63139;52.018;8.552;2023-04-06T07:30:45;15.15;;;8.98;;
74632;SDS011;63139;52.018;8.552;2023-04-06T07:33:15;17.45;;;10.70;;
74632;SDS011;63139;52.018;8.552;2023-04-06T07:35:43;12.90;;;8.82;;
74632;SDS011;63139;52.018;8.552;2023-04-06T07:38:12;17.90;;;10.05;;
74632;SDS011;63139;52.018;8.552;2023-04-06T07:40:40;14.38;;;9.90;;
74632;SDS011;63139;52.018;8.552;2023-04-06T07:43:08;14.25;;;9.15;;
74632;SDS011;63139;52.018;8.552;2023-04-06T07:45:36;13.98;;;9.65;;
74632;SDS011;63139;52.018;8.552;2023-04-06T07:48:05;14.15;;;9.02;;
74632;SDS011;63139;52.018;8.552;2023-04-06T07:50:35;16.88;;;8.88;;
74632;SDS011;63139;52.018;8.552;2023-04-06T07:53:04;15.50;;;8.52;;
74632;SDS011;63139;52.018;8.552;2023-04-06T07:55:33;16.13;;;9.30;;
74632;SDS011;63139;52.018;8.552;2023-04-06T07:58:00;16.55;;;8.75;;
74632;SDS011;63139;52.018;8.552;2023-04-06T08:00:29;10.52;;;8.27;;
74632;SDS011;63139;52.018;8.552;2023-04-06T08:02:57;13.52;;;9.00;;
74632;SDS011;63139;52.018;8.552;2023-04-06T08:05:25;11.23;;;8.32;;
74632;SDS011;63139;52.018;8.552;2023-04-06T08:07:55;14.55;;;8.20;;
74632;SDS011;63139;52.018;8.552;2023-04-06T08:10:23;12.10;;;9.18;;
74632;SDS011;63139;52.018;8.552;2023-04-06T08:12:51;13.93;;;7.55;;
74632;SDS011;63139;52.018;8.552;2023-04-06T08:15:19;11.05;;;7.80;;
74632;SDS011;63139;52.018;8.552;2023-04-06T08:17:47;12.40;;;7.90;;
74632;SDS011;63139;52.018;8.552;2023-04-06T08:20:15;11.50;;;8.20;;
74632;SDS011;63139;52.018;8.552;2023-04-06T08:22:43;13.60;;;7.43;;
74632;SDS011;63139;52.018;8.552;2023-04-06T08:25:12;11.05;;;7.05;;
74632;SDS011;63139;52.018;8.552;2023-04-06T08:27:40;9.82;;;7.30;;
74632;SDS011;63139;52.018;8.552;2023-04-06T08:30:09;11.80;;;7.43;;
74632;SDS011;63139;52.018;8.552;2023-04-06T08:32:37;15.68;;;7.68;;
74632;SDS011;63139;52.018;8.552;2023-04-06T08:35:05;9.20;;;7.03;;
74632;SDS011;63139;52.018;8.552;2023-04-06T08:37:33;10.45;;;6.63;;
74632;SDS011;63139;52.018;8.552;2023-04-06T08:40:01;8.30;;;6.05;;
74632;SDS011;63139;52.018;8.552;2023-04-06T08:42:33;8.98;;;5.63;;
74632;SDS011;63139;52.018;8.552;2023-04-06T08:45:05;8.27;;;5.55;;
74632;SDS011;63139;52.018;8.552;2023-04-06T08:47:33;8.98;;;5.85;;
74632;SDS011;63139;52.018;8.552;2023-04-06T08:50:02;11.13;;;6.13;;
74632;SDS011;63139;52.018;8.552;2023-04-06T08:52:31;9.27;;;5.32;;
74632;SDS011;63139;52.018;8.552;2023-04-06T08:55:00;10.50;;;5.60;;
74632;SDS011;63139;52.018;8.552;2023-04-06T08:57:28;9.48;;;5.90;;
74632;SDS011;63139;52.018;8.552;2023-04-06T08:59:58;8.07;;;5.50;;
74632;SDS011;63139;52.018;8.552;2023-04-06T09:02:28;10.50;;;6.05;;
74632;SDS011;63139;52.018;8.552;2023-04-06T09:04:57;8.85;;;5.80;;
74632;SDS011;63139;52.018;8.552;2023-04-06T09:07:25;12.05;;;6.43;;
74632;SDS011;63139;52.018;8.552;2023-04-06T09:09:55;9.55;;;5.80;;
74632;SDS011;63139;52.018;8.552;2023-04-06T09:12:24;10.77;;;6.72;;
74632;SDS011;63139;52.018;8.552;2023-04-06T09:14:53;9.98;;;5.53;;
74632;SDS011;63139;52.018;8.552;2023-04-06T09:17:24;9.80;;;6.00;;
74632;SDS011;63139;52.018;8.552;2023-04-06T09:19:52;10.02;;;6.65;;
74632;SDS011;63139;52.018;8.552;2023-04-06T09:22:22;8.80;;;5.75;;
74632;SDS011;63139;52.018;8.552;2023-04-06T09:24:51;8.52;;;6.28;;
74632;SDS011;63139;52.018;8.552;2023-04-06T09:27:29;13.30;;;6.50;;
74632;SDS011;63139;52.018;8.552;2023-04-06T09:30:02;9.02;;;6.47;;
74632;SDS011;63139;52.018;8.552;2023-04-06T09:32:43;7.82;;;5.30;;
74632;SDS011;63139;52.018;8.552;2023-04-06T09:35:12;10.70;;;6.85;;
74632;SDS011;63139;52.018;8.552;2023-04-06T09:37:41;11.75;;;6.80;;
74632;SDS011;63139;52.018;8.552;2023-04-06T09:40:09;9.57;;;6.43;;
74632;SDS011;63139;52.018;8.552;2023-04-06T09:42:37;10.43;;;6.57;;
74632;SDS011;63139;52.018;8.552;2023-04-06T09:45:08;12.13;;;7.57;;
74632;SDS011;63139;52.018;8.552;2023-04-06T09:47:38;13.05;;;7.50;;
74632;SDS011;63139;52.018;8.552;2023-04-06T09:50:07;10.02;;;6.32;;
74632;SDS011;63139;52.018;8.552;2023-04-06T09:52:40;11.65;;;6.38;;
74632;SDS011;63139;52.018;8.552;2023-04-06T09:55:11;8.20;;;6.22;;
74632;SDS011;63139;52.018;8.552;2023-04-06T09:57:45;11.23;;;6.40;;
74632;SDS011;63139;52.018;8.552;2023-04-06T10:00:18;11.68;;;6.85;;
74632;SDS011;63139;52.018;8.552;2023-04-06T10:02:54;11.35;;;7.10;;
74632;SDS011;63139;52.018;8.552;2023-04-06T10:05:29;11.80;;;7.43;;
74632;SDS011;63139;52.018;8.552;2023-04-06T10:08:05;10.25;;;6.72;;
74632;SDS011;63139;52.018;8.552;2023-04-06T10:10:36;10.70;;;6.82;;
74632;SDS011;63139;52.018;8.552;2023-04-06T10:13:05;9.10;;;6.20;;
74632;SDS011;63139;52.018;8.552;2023-04-06T10:15:33;10.13;;;6.45;;
74632;SDS011;63139;52.018;8.552;2023-04-06T10:18:03;10.30;;;6.63;;
74632;SDS011;63139;52.018;8.552;2023-04-06T10:20:38;11.23;;;7.35;;
74632;SDS011;63139;52.018;8.552;2023-04-06T10:23:10;10.95;;;6.53;;
74632;SDS011;63139;52.018;8.552;2023-04-06T10:25:51;9.95;;;6.82;;
74632;SDS011;63139;52.018;8.552;2023-04-06T10:28:20;10.55;;;7.35;;
74632;SDS011;63139;52.018;8.552;2023-04-06T10:30:48;11.55;;;7.15;;
74632;SDS011;63139;52.018;8.552;2023-04-06T10:33:18;12.90;;;8.02;;
74632;SDS011;63139;52.018;8.552;2023-04-06T10:35:47;11.63;;;7.57;;
74632;SDS011;63139;52.018;8.552;2023-04-06T10:38:15;11.05;;;7.63;;
74632;SDS011;63139;52.018;8.552;2023-04-06T10:40:48;12.05;;;7.00;;
74632;SDS011;63139;52.018;8.552;2023-04-06T10:43:18;12.60;;;7.88;;
74632;SDS011;63139;52.018;8.552;2023-04-06T10:45:54;12.18;;;8.07;;
74632;SDS011;63139;52.018;8.552;2023-04-06T10:48:24;9.80;;;7.73;;
74632;SDS011;63139;52.018;8.552;2023-04-06T10:50:53;10.88;;;7.22;;
74632;SDS011;63139;52.018;8.552;2023-04-06T10:53:21;10.95;;;7.88;;
74632;SDS011;63139;52.018;8.552;2023-04-06T10:55:50;9.07;;;6.78;;
74632;SDS011;63139;52.018;8.552;2023-04-06T10:58:19;11.80;;;7.10;;
74632;SDS011;63139;52.018;8.552;2023-04-06T11:00:48;10.32;;;7.40;;
74632;SDS011;63139;52.018;8.552;2023-04-06T11:03:17;12.13;;;7.90;;
74632;SDS011;63139;52.018;8.552;2023-04-06T11:05:48;12.98;;;8.23;;
74632;SDS011;63139;52.018;8.552;2023-04-06T11:08:24;12.70;;;8.52;;
74632;SDS011;63139;52.018;8.552;2023-04-06T11:11:03;10.10;;;6.90;;
74632;SDS011;63139;52.018;8.552;2023-04-06T11:13:36;10.27;;;7.20;;
74632;SDS011;63139;52.018;8.552;2023-04-06T11:16:05;13.57;;;8.55;;
74632;SDS011;63139;52.018;8.552;2023-04-06T11:18:33;12.45;;;8.38;;
74632;SDS011;63139;52.018;8.552;2023-04-06T11:21:03;12.32;;;7.75;;
74632;SDS011;63139;52.018;8.552;2023-04-06T11:23:32;14.10;;;8.68;;
74632;SDS011;63139;52.018;8.552;2023-04-06T11:26:00;13.13;;;8.98;;
74632;SDS011;63139;52.018;8.552;2023-04-06T11:28:28;11.35;;;8.23;;
74632;SDS011;63139;52.018;8.552;2023-04-06T11:30:57;17.52;;;8.38;;
74632;SDS011;63139;52.018;8.552;2023-04-06T11:33:27;12.43;;;8.27;;
74632;SDS011;63139;52.018;8.552;2023-04-06T11:35:56;14.50;;;8.40;;
74632;SDS011;63139;52.018;8.552;2023-04-06T11:38:26;15.65;;;8.60;;
74632;SDS011;63139;52.018;8.552;2023-04-06T11:40:54;12.30;;;7.38;;
74632;SDS011;63139;52.018;8.552;2023-04-06T11:43:25;13.63;;;7.97;;
74632;SDS011;63139;52.018;8.552;2023-04-06T11:46:01;12.88;;;7.78;;
74632;SDS011;63139;52.018;8.552;2023-04-06T11:48:31;12.48;;;8.38;;
74632;SDS011;63139;52.018;8.552;2023-04-06T11:50:59;13.15;;;7.13;;
74632;SDS011;63139;52.018;8.552;2023-04-06T11:53:32;12.57;;;8.02;;
74632;SDS011;63139;52.018;8.552;2023-04-06T11:56:11;14.93;;;8.93;;
74632;SDS011;63139;52.018;8.552;2023-04-06T11:58:50;11.25;;;7.47;;
74632;SDS011;63139;52.018;8.552;2023-04-06T12:01:18;14.55;;;7.97;;
74632;SDS011;63139;52.018;8.552;2023-04-06T12:03:46;13.43;;;8.07;;
74632;SDS011;63139;52.018;8.552;2023-04-06T12:06:15;14.32;;;8.23;;
74632;SDS011;63139;52.018;8.552;2023-04-06T12:08:44;12.32;;;7.35;;
74632;SDS011;63139;52.018;8.552;2023-04-06T12:11:12;16.48;;;8.80;;
74632;SDS011;63139;52.018;8.552;2023-04-06T12:13:40;13.00;;;8.85;;
74632;SDS011;63139;52.018;8.552;2023-04-06T12:16:08;17.80;;;9.73;;
74632;SDS011;63139;52.018;8.552;2023-04-06T12:18:36;13.18;;;8.50;;
74632;SDS011;63139;52.018;8.552;2023-04-06T12:21:04;14.63;;;9.15;;
74632;SDS011;63139;52.018;8.552;2023-04-06T12:23:32;12.07;;;8.50;;
74632;SDS011;63139;52.018;8.552;2023-04-06T12:26:02;11.38;;;7.75;;
74632;SDS011;63139;52.018;8.552;2023-04-06T12:28:30;10.73;;;7.40;;
74632;SDS011;63139;52.018;8.552;2023-04-06T12:30:58;13.57;;;7.25;;
74632;SDS011;63139;52.018;8.552;2023-04-06T12:33:26;9.82;;;6.90;;
74632;SDS011;63139;52.018;8.552;2023-04-06T12:35:54;11.32;;;6.47;;
74632;SDS011;63139;52.018;8.552;2023-04-06T12:38:22;11.43;;;7.18;;
74632;SDS011;63139;52.018;8.552;2023-04-06T12:40:51;11.10;;;7.43;;
74632;SDS011;63139;52.018;8.552;2023-04-06T12:43:20;10.38;;;6.05;;
74632;SDS011;63139;52.018;8.552;2023-04-06T12:45:48;10.00;;;6.25;;
74632;SDS011;63139;52.018;8.552;2023-04-06T12:48:17;10.60;;;6.57;;
74632;SDS011;63139;52.018;8.552;2023-04-06T12:50:53;9.70;;;6.10;;
74632;SDS011;63139;52.018;8.552;2023-04-06T12:53:22;11.25;;;6.88;;
74632;SDS011;63139;52.018;8.552;2023-04-06T12:55:50;10.13;;;6.10;;
74632;SDS011;63139;52.018;8.552;2023-04-06T12:58:18;11.60;;;7.22;;
74632;SDS011;63139;52.018;8.552;2023-04-06T13:00:47;9.35;;;6.38;;
74632;SDS011;63139;52.018;8.552;2023-04-06T13:03:16;9.55;;;6.07;;
74632;SDS011;63139;52.018;8.552;2023-04-06T13:05:44;10.40;;;7.07;;
74632;SDS011;63139;52.018;8.552;2023-04-06T13:08:13;14.07;;;7.63;;
74632;SDS011;63139;52.018;8.552;2023-04-06T13:10:42;10.57;;;7.00;;
74632;SDS011;63139;52.018;8.552;2023-04-06T13:13:10;12.90;;;7.47;;
74632;SDS011;63139;52.018;8.552;2023-04-06T13:15:40;13.05;;;8.18;;
74632;SDS011;63139;52.018;8.552;2023-04-06T13:18:08;10.75;;;7.20;;
74632;SDS011;63139;52.018;8.552;2023-04-06T13:20:36;12.10;;;7.40;;
74632;SDS011;63139;52.018;8.552;2023-04-06T13:23:05;11.10;;;6.88;;
74632;SDS011;63139;52.018;8.552;2023-04-06T13:25:33;10.88;;;7.57;;
74632;SDS011;63139;52.018;8.552;2023-04-06T13:28:02;10.30;;;6.90;;
74632;SDS011;63139;52.018;8.552;2023-04-06T13:30:30;13.77;;;7.85;;
74632;SDS011;63139;52.018;8.552;2023-04-06T13:33:00;11.80;;;7.70;;
74632;SDS011;63139;52.018;8.552;2023-04-06T13:35:28;12.32;;;7.78;;
74632;SDS011;63139;52.018;8.552;2023-04-06T13:37:56;14.55;;;7.82;;
74632;SDS011;63139;52.018;8.552;2023-04-06T13:40:24;10.82;;;7.80;;
74632;SDS011;63139;52.018;8.552;2023-04-06T13:42:52;10.13;;;6.90;;
74632;SDS011;63139;52.018;8.552;2023-04-06T13:45:20;11.65;;;7.35;;
74632;SDS011;63139;52.018;8.552;2023-04-06T13:47:48;11.85;;;6.93;;
74632;SDS011;63139;52.018;8.552;2023-04-06T13:50:17;12.95;;;7.63;;
74632;SDS011;63139;52.018;8.552;2023-04-06T13:52:45;11.48;;;7.22;;
74632;SDS011;63139;52.018;8.552;2023-04-06T13:55:13;11.02;;;7.28;;
74632;SDS011;63139;52.018;8.552;2023-04-06T13:57:41;12.38;;;7.47;;
74632;SDS011;63139;52.018;8.552;2023-04-06T14:00:09;13.95;;;8.50;;
74632;SDS011;63139;52.018;8.552;2023-04-06T14:02:39;13.95;;;8.70;;
74632;SDS011;63139;52.018;8.552;2023-04-06T14:05:07;12.57;;;7.38;;
74632;SDS011;63139;52.018;8.552;2023-04-06T14:07:37;9.98;;;6.85;;
74632;SDS011;63139;52.018;8.552;2023-04-06T14:10:05;13.13;;;8.20;;
74632;SDS011;63139;52.018;8.552;2023-04-06T14:12:40;12.55;;;8.23;;
74632;SDS011;63139;52.018;8.552;2023-04-06T14:15:08;12.32;;;8.13;;
74632;SDS011;63139;52.018;8.552;2023-04-06T14:17:38;12.55;;;8.50;;
74632;SDS011;63139;52.018;8.552;2023-04-06T14:20:06;11.63;;;7.80;;
74632;SDS011;63139;52.018;8.552;2023-04-06T14:22:41;15.23;;;9.23;;
74632;SDS011;63139;52.018;8.552;2023-04-06T14:25:09;15.60;;;9.30;;
74632;SDS011;63139;52.018;8.552;2023-04-06T14:27:38;13.40;;;8.82;;
74632;SDS011;63139;52.018;8.552;2023-04-06T14:30:07;14.43;;;9.32;;
74632;SDS011;63139;52.018;8.552;2023-04-06T14:32:35;12.57;;;8.77;;
74632;SDS011;63139;52.018;8.552;2023-04-06T14:35:04;14.88;;;9.55;;
74632;SDS011;63139;52.018;8.552;2023-04-06T14:37:33;15.23;;;9.35;;
74632;SDS011;63139;52.018;8.552;2023-04-06T14:40:02;16.63;;;9.93;;
74632;SDS011;63139;52.018;8.552;2023-04-06T14:42:31;13.05;;;9.00;;
74632;SDS011;63139;52.018;8.552;2023-04-06T14:44:59;16.27;;;9.98;;
74632;SDS011;63139;52.018;8.552;2023-04-06T14:47:27;15.65;;;10.10;;
74632;SDS011;63139;52.018;8.552;2023-04-06T14:49:55;12.02;;;8.88;;
74632;SDS011;63139;52.018;8.552;2023-04-06T14:52:23;14.25;;;8.77;;